sensor_id;sensor_type;location;lat;lon;timestamp;pressure;altitude;pressure_sealevel;temperature;humidity
11519;BME280;5816;48.228;14.116;2023-01-29T06:38:46;99062.94;;;-0.25;100.00
11519;BME280;5816;48.228;14.116;2023-01-29T06:49:37;99056.91;;;-0.31;100.00
11519;BME280;5816;48.228;14.116;2023-01-29T06:54:38;99061.47;;;-0.37;100.00
11519;BME280;5816;48.228;14.116;2023-01-29T06:59:40;99059.97;;;-0.46;100.00
11519;BME280;5816;48.228;14.116;2023-01-29T07:04:42;99046.31;;;-0.28;100.00
11519;BME280;5816;48.228;14.116;2023-01-29T07:09:44;99052.66;;;-0.35;100.00
11519;BME280;5816;48.228;14.116;2023-01-29T07:14:45;99059.16;;;-0.48;100.00
11519;BME280;5816;48.228;14.116;2023-01-29T07:19:47;99051.16;;;-0.45;100.00
11519;BME280;5816;48.228;14.116;2023-01-29T07:24:48;99058.41;;;-0.53;100.00
11519;BME280;5816;48.228;14.116;2023-01-29T07:29:50;99055.69;;;-0.50;100.00
11519;BME280;5816;48.228;14.116;2023-01-29T07:34:52;99056.59;;;-0.51;100.00
11519;BME280;5816;48.228;14.116;2023-01-29T07:40:26;99057.09;;;-0.37;100.00
11519;BME280;5816;48.228;14.116;2023-01-29T07:45:28;99038.75;;;-0.40;100.00
11519;BME280;5816;48.228;14.116;2023-01-29T07:50:32;99041.38;;;-0.40;100.00
11519;BME280;5816;48.228;14.116;2023-01-29T07:55:34;99046.06;;;-0.51;100.00
11519;BME280;5816;48.228;14.116;2023-01-29T08:00:36;99054.31;;;-0.65;100.00
11519;BME280;5816;48.228;14.116;2023-01-29T08:05:38;99045.75;;;-0.39;100.00
11519;BME280;5816;48.228;14.116;2023-01-29T08:10:40;99054.09;;;-0.56;100.00
11519;BME280;5816;48.228;14.116;2023-01-29T08:15:43;99077.38;;;-0.42;100.00
11519;BME280;5816;48.228;14.116;2023-01-29T08:20:45;99074.09;;;-0.50;100.00
11519;BME280;5816;48.228;14.116;2023-01-29T08:25:47;99074.94;;;-0.48;100.00
11519;BME280;5816;48.228;14.116;2023-01-29T08:30:49;99072.06;;;-0.39;100.00
11519;BME280;5816;48.228;14.116;2023-01-29T08:35:50;99089.50;;;-0.35;100.00
11519;BME280;5816;48.228;14.116;2023-01-29T08:40:52;99090.56;;;-0.09;100.00
11519;BME280;5816;48.228;14.116;2023-01-29T08:45:55;99099.47;;;-0.13;100.00
11519;BME280;5816;48.228;14.116;2023-01-29T08:50:57;99100.53;;;-0.20;100.00
11519;BME280;5816;48.228;14.116;2023-01-29T08:56:00;99106.63;;;-0.18;100.00
11519;BME280;5816;48.228;14.116;2023-01-29T09:01:09;99107.41;;;0.16;100.00
11519;BME280;5816;48.228;14.116;2023-01-29T09:06:12;99120.00;;;0.05;100.00
11519;BME280;5816;48.228;14.116;2023-01-29T09:11:14;99117.69;;;0.25;100.00
11519;BME280;5816;48.228;14.116;2023-01-29T09:16:16;99134.34;;;0.26;100.00
11519;BME280;5816;48.228;14.116;2023-01-29T09:21:18;99127.56;;;0.17;100.00
11519;BME280;5816;48.228;14.116;2023-01-29T09:26:19;99142.13;;;0.31;100.00
11519;BME280;5816;48.228;14.116;2023-01-29T09:31:21;99121.50;;;0.15;99.63
11519;BME280;5816;48.228;14.116;2023-01-29T09:36:24;99141.63;;;0.18;98.99
11519;BME280;5816;48.228;14.116;2023-01-29T09:42:11;99132.28;;;0.06;97.46
11519;BME280;5816;48.228;14.116;2023-01-29T09:46:54;99137.84;;;0.26;96.66
11519;BME280;5816;48.228;14.116;2023-01-29T09:57:25;99144.03;;;0.25;95.63
11519;BME280;5816;48.228;14.116;2023-01-29T10:02:51;99138.50;;;0.35;95.49
11519;BME280;5816;48.228;14.116;2023-01-29T10:08:08;99151.28;;;0.17;95.17
11519;BME280;5816;48.228;14.116;2023-01-29T10:13:37;99164.94;;;0.32;94.69
11519;BME280;5816;48.228;14.116;2023-01-29T10:24:25;99145.81;;;0.56;95.13
11519;BME280;5816;48.228;14.116;2023-01-29T10:29:43;99142.09;;;0.32;94.14
11519;BME280;5816;48.228;14.116;2023-01-29T10:39:47;99134.19;;;0.63;93.46
11519;BME280;5816;48.228;14.116;2023-01-29T10:45:22;99125.69;;;0.81;93.82
11519;BME280;5816;48.228;14.116;2023-01-29T10:50:43;99118.44;;;0.60;93.54
11519;BME280;5816;48.228;14.116;2023-01-29T10:56:11;99102.91;;;0.79;93.04
11519;BME280;5816;48.228;14.116;2023-01-29T11:01:24;99082.25;;;0.65;93.04
11519;BME280;5816;48.228;14.116;2023-01-29T11:06:32;99057.34;;;0.46;91.83
11519;BME280;5816;48.228;14.116;2023-01-29T11:11:51;99066.75;;;0.82;92.09
11519;BME280;5816;48.228;14.116;2023-01-29T11:16:54;99065.16;;;0.78;92.27
11519;BME280;5816;48.228;14.116;2023-01-29T11:21:58;99078.38;;;1.05;92.37
11519;BME280;5816;48.228;14.116;2023-01-29T11:27:00;99069.34;;;1.12;92.02
11519;BME280;5816;48.228;14.116;2023-01-29T11:32:14;99053.78;;;1.03;91.42
11519;BME280;5816;48.228;14.116;2023-01-29T11:37:33;99040.47;;;1.07;91.37
11519;BME280;5816;48.228;14.116;2023-01-29T11:42:35;99024.56;;;1.35;91.50
11519;BME280;5816;48.228;14.116;2023-01-29T11:47:37;99021.75;;;1.15;91.09
11519;BME280;5816;48.228;14.116;2023-01-29T11:52:40;99016.91;;;1.28;91.10
11519;BME280;5816;48.228;14.116;2023-01-29T11:58:03;99012.06;;;1.41;91.72
11519;BME280;5816;48.228;14.116;2023-01-29T12:03:15;99007.41;;;1.22;91.56
11519;BME280;5816;48.228;14.116;2023-01-29T12:08:22;99005.59;;;1.24;92.16
11519;BME280;5816;48.228;14.116;2023-01-29T12:13:26;99001.69;;;1.09;91.76
11519;BME280;5816;48.228;14.116;2023-01-29T12:18:34;98986.53;;;0.90;90.32
11519;BME280;5816;48.228;14.116;2023-01-29T12:34:40;98959.34;;;0.88;88.11
11519;BME280;5816;48.228;14.116;2023-01-29T12:39:47;98950.91;;;0.76;88.24
11519;BME280;5816;48.228;14.116;2023-01-29T12:44:58;98941.91;;;0.84;88.80
11519;BME280;5816;48.228;14.116;2023-01-29T12:50:11;98943.72;;;0.81;89.16
11519;BME280;5816;48.228;14.116;2023-01-29T12:55:23;98922.09;;;0.97;89.18
11519;BME280;5816;48.228;14.116;2023-01-29T13:00:35;98920.69;;;1.13;89.68
11519;BME280;5816;48.228;14.116;2023-01-29T13:05:50;98918.72;;;1.18;90.11
11519;BME280;5816;48.228;14.116;2023-01-29T13:10:54;98912.25;;;1.02;90.22
11519;BME280;5816;48.228;14.116;2023-01-29T13:15:58;98910.59;;;0.99;89.60
11519;BME280;5816;48.228;14.116;2023-01-29T13:21:02;98911.66;;;0.94;89.46
11519;BME280;5816;48.228;14.116;2023-01-29T13:26:04;98911.34;;;1.03;90.27
11519;BME280;5816;48.228;14.116;2023-01-29T13:36:28;98909.19;;;0.89;90.40
11519;BME280;5816;48.228;14.116;2023-01-29T13:41:33;98917.56;;;0.75;90.54
11519;BME280;5816;48.228;14.116;2023-01-29T13:46:39;98915.31;;;0.90;90.78
11519;BME280;5816;48.228;14.116;2023-01-29T13:51:41;98917.41;;;0.80;90.84
11519;BME280;5816;48.228;14.116;2023-01-29T13:56:55;98918.19;;;0.84;90.96
11519;BME280;5816;48.228;14.116;2023-01-29T14:02:01;98872.25;;;0.64;90.15
11519;BME280;5816;48.228;14.116;2023-01-29T14:07:48;98902.13;;;0.90;89.70
11519;BME280;5816;48.228;14.116;2023-01-29T14:13:24;98883.78;;;0.87;90.23
11519;BME280;5816;48.228;14.116;2023-01-29T14:18:20;98878.31;;;0.93;90.89
11519;BME280;5816;48.228;14.116;2023-01-29T14:23:32;98882.47;;;0.73;90.07
11519;BME280;5816;48.228;14.116;2023-01-29T14:28:52;98868.91;;;1.09;90.42
11519;BME280;5816;48.228;14.116;2023-01-29T14:34:02;98873.13;;;0.90;90.25
11519;BME280;5816;48.228;14.116;2023-01-29T14:39:19;98851.81;;;0.96;90.50
11519;BME280;5816;48.228;14.116;2023-01-29T14:49:53;98863.84;;;1.03;90.48
11519;BME280;5816;48.228;14.116;2023-01-29T14:54:59;98854.28;;;0.75;89.86
11519;BME280;5816;48.228;14.116;2023-01-29T15:00:05;98857.47;;;0.85;90.55
11519;BME280;5816;48.228;14.116;2023-01-29T15:05:18;98859.25;;;0.85;90.70
11519;BME280;5816;48.228;14.116;2023-01-29T15:15:49;98879.25;;;0.65;90.56
11519;BME280;5816;48.228;14.116;2023-01-29T15:21:08;98866.44;;;0.79;90.62
11519;BME280;5816;48.228;14.116;2023-01-29T15:26:21;98860.53;;;0.73;90.78
11519;BME280;5816;48.228;14.116;2023-01-29T15:31:27;98862.50;;;0.66;91.26
11519;BME280;5816;48.228;14.116;2023-01-29T15:36:30;98870.53;;;0.63;92.03
11519;BME280;5816;48.228;14.116;2023-01-29T15:41:32;98873.56;;;0.77;92.51
11519;BME280;5816;48.228;14.116;2023-01-29T15:46:36;98874.22;;;0.84;92.57
11519;BME280;5816;48.228;14.116;2023-01-29T15:51:38;98857.94;;;0.71;92.74
11519;BME280;5816;48.228;14.116;2023-01-29T15:56:43;98873.78;;;0.71;92.57
11519;BME280;5816;48.228;14.116;2023-01-29T16:01:47;98856.69;;;0.57;93.48
11519;BME280;5816;48.228;14.116;2023-01-29T16:06:49;98875.91;;;0.60;93.55
11519;BME280;5816;48.228;14.116;2023-01-29T16:11:53;98879.34;;;0.62;93.83
11519;BME280;5816;48.228;14.116;2023-01-29T16:17:10;98881.78;;;0.68;94.25
11519;BME280;5816;48.228;14.116;2023-01-29T16:22:22;98877.53;;;0.64;94.48
11519;BME280;5816;48.228;14.116;2023-01-29T16:27:24;98903.78;;;0.67;94.19
11519;BME280;5816;48.228;14.116;2023-01-29T16:32:28;98899.38;;;0.68;94.82
11519;BME280;5816;48.228;14.116;2023-01-29T16:37:34;98901.53;;;0.57;94.25
11519;BME280;5816;48.228;14.116;2023-01-29T16:42:37;98906.00;;;0.53;94.68
11519;BME280;5816;48.228;14.116;2023-01-29T16:47:39;98894.72;;;0.49;94.48
11519;BME280;5816;48.228;14.116;2023-01-29T16:53:00;98907.66;;;0.57;95.21
11519;BME280;5816;48.228;14.116;2023-01-29T16:58:15;98899.94;;;0.51;95.12
11519;BME280;5816;48.228;14.116;2023-01-29T17:03:17;98916.47;;;0.56;95.44
11519;BME280;5816;48.228;14.116;2023-01-29T17:08:26;98902.56;;;0.51;96.92
11519;BME280;5816;48.228;14.116;2023-01-29T17:13:34;98906.13;;;0.50;96.01
11519;BME280;5816;48.228;14.116;2023-01-29T17:18:37;98907.50;;;0.35;95.68
11519;BME280;5816;48.228;14.116;2023-01-29T17:23:39;98902.72;;;0.46;96.38
11519;BME280;5816;48.228;14.116;2023-01-29T17:28:41;98915.34;;;0.37;95.52
11519;BME280;5816;48.228;14.116;2023-01-29T17:33:44;98910.06;;;0.37;95.85
11519;BME280;5816;48.228;14.116;2023-01-29T17:38:47;98909.41;;;0.30;96.31
11519;BME280;5816;48.228;14.116;2023-01-29T17:43:49;98904.22;;;0.27;97.12
11519;BME280;5816;48.228;14.116;2023-01-29T17:48:51;98913.09;;;0.24;96.90
11519;BME280;5816;48.228;14.116;2023-01-29T17:53:53;98908.72;;;0.23;97.10
11519;BME280;5816;48.228;14.116;2023-01-29T17:58:54;98911.44;;;0.20;97.51
11519;BME280;5816;48.228;14.116;2023-01-29T18:03:56;98901.94;;;0.16;97.37
11519;BME280;5816;48.228;14.116;2023-01-29T18:08:58;98905.69;;;0.09;98.12
11519;BME280;5816;48.228;14.116;2023-01-29T18:14:00;98895.22;;;0.06;98.44
11519;BME280;5816;48.228;14.116;2023-01-29T18:19:20;98891.47;;;0.13;98.95
11519;BME280;5816;48.228;14.116;2023-01-29T18:24:22;98884.53;;;0.11;99.65
11519;BME280;5816;48.228;14.116;2023-01-29T18:29:24;98888.03;;;0.11;99.72
11519;BME280;5816;48.228;14.116;2023-01-29T18:34:30;98877.03;;;-0.02;99.34
11519;BME280;5816;48.228;14.116;2023-01-29T18:39:32;98891.03;;;0.01;98.63
11519;BME280;5816;48.228;14.116;2023-01-29T18:44:34;98876.16;;;-0.02;98.60
11519;BME280;5816;48.228;14.116;2023-01-29T18:49:35;98880.53;;;-0.01;98.63
11519;BME280;5816;48.228;14.116;2023-01-29T18:54:39;98882.09;;;0.05;98.53
11519;BME280;5816;48.228;14.116;2023-01-29T18:59:41;98892.81;;;0.00;98.89
11519;BME280;5816;48.228;14.116;2023-01-29T19:04:45;98877.06;;;-0.03;98.62
11519;BME280;5816;48.228;14.116;2023-01-29T19:09:47;98882.97;;;0.05;98.80
11519;BME280;5816;48.228;14.116;2023-01-29T19:14:50;98880.88;;;0.16;98.50
11519;BME280;5816;48.228;14.116;2023-01-29T19:19:52;98887.66;;;0.23;98.31
11519;BME280;5816;48.228;14.116;2023-01-29T19:24:56;98864.94;;;0.19;98.63
11519;BME280;5816;48.228;14.116;2023-01-29T19:29:58;98865.84;;;0.18;98.58
11519;BME280;5816;48.228;14.116;2023-01-29T19:35:01;98863.22;;;0.18;99.02
11519;BME280;5816;48.228;14.116;2023-01-29T19:40:03;98859.59;;;0.22;99.17
11519;BME280;5816;48.228;14.116;2023-01-29T19:45:06;98861.31;;;0.23;99.49
11519;BME280;5816;48.228;14.116;2023-01-29T19:50:09;98858.72;;;0.22;99.57
11519;BME280;5816;48.228;14.116;2023-01-29T19:55:11;98854.22;;;0.25;100.00
11519;BME280;5816;48.228;14.116;2023-01-29T20:00:13;98860.28;;;0.27;100.00
11519;BME280;5816;48.228;14.116;2023-01-29T20:05:16;98861.31;;;0.23;100.00
11519;BME280;5816;48.228;14.116;2023-01-29T20:10:19;98859.44;;;0.27;100.00
11519;BME280;5816;48.228;14.116;2023-01-29T20:15:21;98859.59;;;0.22;100.00
11519;BME280;5816;48.228;14.116;2023-01-29T20:20:23;98857.66;;;0.27;100.00
11519;BME280;5816;48.228;14.116;2023-01-29T20:25:32;98853.28;;;0.28;99.73
11519;BME280;5816;48.228;14.116;2023-01-29T20:30:37;98851.03;;;0.16;99.40
11519;BME280;5816;48.228;14.116;2023-01-29T20:35:40;98852.50;;;0.24;99.21
11519;BME280;5816;48.228;14.116;2023-01-29T20:40:41;98850.66;;;0.26;99.05
11519;BME280;5816;48.228;14.116;2023-01-29T20:45:43;98843.06;;;0.17;98.99
11519;BME280;5816;48.228;14.116;2023-01-29T20:50:45;98843.97;;;0.16;98.57
